sensor_id;sensor_type;location;lat;lon;timestamp;P1;durP1;ratioP1;P2;durP2;ratioP2
22256;SDS011;11297;42.686;23.374;2022-07-03T00:01:24;9.40;;;8.60;;
22256;SDS011;11297;42.686;23.374;2022-07-03T00:03:50;9.93;;;8.93;;
22256;SDS011;11297;42.686;23.374;2022-07-03T00:06:15;11.67;;;9.30;;
22256;SDS011;11297;42.686;23.374;2022-07-03T00:08:41;10.17;;;9.10;;
22256;SDS011;11297;42.686;23.374;2022-07-03T00:11:06;11.83;;;10.50;;
22256;SDS011;11297;42.686;23.374;2022-07-03T00:13:32;10.80;;;9.70;;
22256;SDS011;11297;42.686;23.374;2022-07-03T00:15:57;11.40;;;10.13;;
22256;SDS011;11297;42.686;23.374;2022-07-03T00:18:23;12.90;;;8.90;;
22256;SDS011;11297;42.686;23.374;2022-07-03T00:20:49;10.47;;;9.27;;
22256;SDS011;11297;42.686;23.374;2022-07-03T00:23:24;20.67;;;14.57;;
22256;SDS011;11297;42.686;23.374;2022-07-03T00:25:53;30.00;;;18.80;;
22256;SDS011;11297;42.686;23.374;2022-07-03T00:28:19;12.93;;;10.43;;
22256;SDS011;11297;42.686;23.374;2022-07-03T00:30:48;10.50;;;9.30;;
22256;SDS011;11297;42.686;23.374;2022-07-03T00:33:14;10.17;;;8.93;;
22256;SDS011;11297;42.686;23.374;2022-07-03T00:35:40;12.07;;;10.13;;
22256;SDS011;11297;42.686;23.374;2022-07-03T00:38:07;13.30;;;10.57;;
22256;SDS011;11297;42.686;23.374;2022-07-03T00:40:33;14.00;;;11.23;;
22256;SDS011;11297;42.686;23.374;2022-07-03T00:42:59;11.60;;;10.03;;
22256;SDS011;11297;42.686;23.374;2022-07-03T00:45:25;13.70;;;9.83;;
22256;SDS011;11297;42.686;23.374;2022-07-03T00:47:51;14.17;;;9.73;;
22256;SDS011;11297;42.686;23.374;2022-07-03T00:50:16;12.60;;;9.73;;
22256;SDS011;11297;42.686;23.374;2022-07-03T00:52:49;13.93;;;9.57;;
22256;SDS011;11297;42.686;23.374;2022-07-03T00:55:17;10.73;;;9.13;;
22256;SDS011;11297;42.686;23.374;2022-07-03T00:57:46;10.93;;;8.53;;
22256;SDS011;11297;42.686;23.374;2022-07-03T01:00:13;10.53;;;9.03;;
22256;SDS011;11297;42.686;23.374;2022-07-03T01:05:24;11.07;;;8.43;;
22256;SDS011;11297;42.686;23.374;2022-07-03T01:07:54;12.60;;;7.90;;
22256;SDS011;11297;42.686;23.374;2022-07-03T01:10:47;9.77;;;8.50;;
22256;SDS011;11297;42.686;23.374;2022-07-03T01:18:45;8.80;;;7.90;;
22256;SDS011;11297;42.686;23.374;2022-07-03T01:23:56;9.13;;;7.10;;
22256;SDS011;11297;42.686;23.374;2022-07-03T01:26:45;8.43;;;7.60;;
22256;SDS011;11297;42.686;23.374;2022-07-03T01:29:20;8.87;;;8.03;;
22256;SDS011;11297;42.686;23.374;2022-07-03T01:31:50;9.23;;;8.30;;
22256;SDS011;11297;42.686;23.374;2022-07-03T01:34:19;8.83;;;7.97;;
22256;SDS011;11297;42.686;23.374;2022-07-03T01:36:47;9.53;;;8.13;;
22256;SDS011;11297;42.686;23.374;2022-07-03T01:39:17;9.23;;;8.20;;
22256;SDS011;11297;42.686;23.374;2022-07-03T01:41:47;9.63;;;8.77;;
22256;SDS011;11297;42.686;23.374;2022-07-03T01:44:15;13.53;;;9.30;;
22256;SDS011;11297;42.686;23.374;2022-07-03T01:46:41;11.70;;;9.23;;
22256;SDS011;11297;42.686;23.374;2022-07-03T01:49:10;9.07;;;8.17;;
22256;SDS011;11297;42.686;23.374;2022-07-03T01:51:38;9.77;;;8.70;;
22256;SDS011;11297;42.686;23.374;2022-07-03T01:54:04;10.77;;;9.67;;
22256;SDS011;11297;42.686;23.374;2022-07-03T01:56:32;13.50;;;9.93;;
22256;SDS011;11297;42.686;23.374;2022-07-03T01:59:01;11.90;;;9.47;;
22256;SDS011;11297;42.686;23.374;2022-07-03T02:01:45;9.50;;;8.53;;
22256;SDS011;11297;42.686;23.374;2022-07-03T02:04:21;9.57;;;8.67;;
22256;SDS011;11297;42.686;23.374;2022-07-03T02:07:05;10.00;;;8.93;;
22256;SDS011;11297;42.686;23.374;2022-07-03T02:09:44;18.50;;;9.23;;
22256;SDS011;11297;42.686;23.374;2022-07-03T02:12:14;13.40;;;9.73;;
22256;SDS011;11297;42.686;23.374;2022-07-03T02:14:46;9.07;;;8.17;;
22256;SDS011;11297;42.686;23.374;2022-07-03T02:17:20;10.20;;;9.17;;
22256;SDS011;11297;42.686;23.374;2022-07-03T02:22:21;10.20;;;8.87;;
22256;SDS011;11297;42.686;23.374;2022-07-03T02:24:50;9.20;;;8.30;;
22256;SDS011;11297;42.686;23.374;2022-07-03T02:27:22;9.23;;;8.10;;
22256;SDS011;11297;42.686;23.374;2022-07-03T02:32:22;9.80;;;8.80;;
22256;SDS011;11297;42.686;23.374;2022-07-03T02:35:01;15.10;;;10.53;;
22256;SDS011;11297;42.686;23.374;2022-07-03T02:37:32;16.57;;;10.80;;
22256;SDS011;11297;42.686;23.374;2022-07-03T02:45:36;14.43;;;10.20;;
22256;SDS011;11297;42.686;23.374;2022-07-03T02:48:51;13.60;;;11.30;;
22256;SDS011;11297;42.686;23.374;2022-07-03T02:51:05;12.63;;;10.43;;
22256;SDS011;11297;42.686;23.374;2022-07-03T02:53:41;14.23;;;12.83;;
22256;SDS011;11297;42.686;23.374;2022-07-03T03:04:38;10.83;;;8.53;;
22256;SDS011;11297;42.686;23.374;2022-07-03T03:07:12;10.70;;;9.00;;
22256;SDS011;11297;42.686;23.374;2022-07-03T03:09:41;11.63;;;8.87;;
22256;SDS011;11297;42.686;23.374;2022-07-03T03:12:08;10.53;;;8.27;;
22256;SDS011;11297;42.686;23.374;2022-07-03T03:14:38;11.73;;;9.70;;
22256;SDS011;11297;42.686;23.374;2022-07-03T03:17:06;13.57;;;10.03;;
22256;SDS011;11297;42.686;23.374;2022-07-03T03:19:36;10.67;;;9.67;;
22256;SDS011;11297;42.686;23.374;2022-07-03T03:22:09;12.93;;;10.47;;
22256;SDS011;11297;42.686;23.374;2022-07-03T03:24:39;12.13;;;10.93;;
22256;SDS011;11297;42.686;23.374;2022-07-03T03:27:05;14.07;;;10.73;;
22256;SDS011;11297;42.686;23.374;2022-07-03T03:29:31;11.80;;;10.60;;
22256;SDS011;11297;42.686;23.374;2022-07-03T03:31:57;12.37;;;11.07;;
22256;SDS011;11297;42.686;23.374;2022-07-03T03:34:22;12.10;;;10.40;;
22256;SDS011;11297;42.686;23.374;2022-07-03T03:36:50;11.90;;;10.63;;
22256;SDS011;11297;42.686;23.374;2022-07-03T03:39:16;15.23;;;12.07;;
22256;SDS011;11297;42.686;23.374;2022-07-03T03:41:41;11.87;;;10.73;;
22256;SDS011;11297;42.686;23.374;2022-07-03T03:44:07;13.73;;;12.33;;
22256;SDS011;11297;42.686;23.374;2022-07-03T03:46:32;14.53;;;13.03;;
22256;SDS011;11297;42.686;23.374;2022-07-03T03:48:58;11.13;;;10.13;;
22256;SDS011;11297;42.686;23.374;2022-07-03T03:51:24;14.00;;;11.57;;
22256;SDS011;11297;42.686;23.374;2022-07-03T03:53:49;13.07;;;11.67;;
22256;SDS011;11297;42.686;23.374;2022-07-03T03:56:15;16.03;;;13.00;;
22256;SDS011;11297;42.686;23.374;2022-07-03T03:58:41;15.60;;;12.33;;
22256;SDS011;11297;42.686;23.374;2022-07-03T04:01:07;14.93;;;13.33;;
22256;SDS011;11297;42.686;23.374;2022-07-03T04:03:34;14.17;;;12.77;;
22256;SDS011;11297;42.686;23.374;2022-07-03T04:06:00;20.03;;;12.77;;
22256;SDS011;11297;42.686;23.374;2022-07-03T04:08:27;14.00;;;12.70;;
22256;SDS011;11297;42.686;23.374;2022-07-03T04:10:53;14.07;;;12.37;;
22256;SDS011;11297;42.686;23.374;2022-07-03T04:13:19;14.03;;;11.90;;
22256;SDS011;11297;42.686;23.374;2022-07-03T04:15:45;17.10;;;13.30;;
22256;SDS011;11297;42.686;23.374;2022-07-03T04:18:11;15.67;;;13.57;;
22256;SDS011;11297;42.686;23.374;2022-07-03T04:20:37;18.37;;;15.47;;
22256;SDS011;11297;42.686;23.374;2022-07-03T04:23:03;18.17;;;16.33;;
22256;SDS011;11297;42.686;23.374;2022-07-03T04:25:29;18.93;;;16.90;;
22256;SDS011;11297;42.686;23.374;2022-07-03T04:27:54;22.17;;;19.87;;
22256;SDS011;11297;42.686;23.374;2022-07-03T04:30:20;21.73;;;19.53;;
22256;SDS011;11297;42.686;23.374;2022-07-03T04:32:45;19.50;;;17.60;;
22256;SDS011;11297;42.686;23.374;2022-07-03T04:35:12;19.13;;;16.20;;
22256;SDS011;11297;42.686;23.374;2022-07-03T04:37:38;21.90;;;16.77;;
22256;SDS011;11297;42.686;23.374;2022-07-03T04:40:04;19.30;;;16.53;;
22256;SDS011;11297;42.686;23.374;2022-07-03T04:42:30;18.17;;;16.37;;
22256;SDS011;11297;42.686;23.374;2022-07-03T04:44:55;18.40;;;16.07;;
22256;SDS011;11297;42.686;23.374;2022-07-03T04:47:20;15.97;;;14.40;;
22256;SDS011;11297;42.686;23.374;2022-07-03T04:49:46;15.17;;;13.70;;
22256;SDS011;11297;42.686;23.374;2022-07-03T04:52:11;14.77;;;13.23;;
22256;SDS011;11297;42.686;23.374;2022-07-03T04:54:37;13.67;;;12.03;;
22256;SDS011;11297;42.686;23.374;2022-07-03T04:57:03;12.13;;;10.93;;
22256;SDS011;11297;42.686;23.374;2022-07-03T04:59:28;12.67;;;11.37;;
22256;SDS011;11297;42.686;23.374;2022-07-03T05:01:54;14.97;;;11.17;;
22256;SDS011;11297;42.686;23.374;2022-07-03T05:04:20;13.07;;;11.77;;
22256;SDS011;11297;42.686;23.374;2022-07-03T05:06:45;16.40;;;14.67;;
22256;SDS011;11297;42.686;23.374;2022-07-03T05:09:11;13.47;;;11.10;;
22256;SDS011;11297;42.686;23.374;2022-07-03T05:11:36;12.73;;;11.33;;
22256;SDS011;11297;42.686;23.374;2022-07-03T05:14:02;14.00;;;12.60;;
22256;SDS011;11297;42.686;23.374;2022-07-03T05:16:28;13.33;;;10.53;;
22256;SDS011;11297;42.686;23.374;2022-07-03T05:18:54;14.17;;;11.83;;
22256;SDS011;11297;42.686;23.374;2022-07-03T05:21:19;12.10;;;10.47;;
22256;SDS011;11297;42.686;23.374;2022-07-03T05:23:45;13.13;;;10.77;;
22256;SDS011;11297;42.686;23.374;2022-07-03T05:26:10;13.03;;;11.70;;
22256;SDS011;11297;42.686;23.374;2022-07-03T05:28:36;14.73;;;10.37;;
22256;SDS011;11297;42.686;23.374;2022-07-03T05:31:01;12.10;;;10.90;;
22256;SDS011;11297;42.686;23.374;2022-07-03T05:33:28;13.63;;;12.23;;
22256;SDS011;11297;42.686;23.374;2022-07-03T05:35:56;13.43;;;12.03;;
22256;SDS011;11297;42.686;23.374;2022-07-03T05:38:23;13.63;;;12.23;;
22256;SDS011;11297;42.686;23.374;2022-07-03T05:41:07;18.67;;;12.37;;
22256;SDS011;11297;42.686;23.374;2022-07-03T05:43:32;14.67;;;13.23;;
22256;SDS011;11297;42.686;23.374;2022-07-03T05:45:58;15.63;;;14.13;;
22256;SDS011;11297;42.686;23.374;2022-07-03T05:48:24;19.73;;;13.23;;
22256;SDS011;11297;42.686;23.374;2022-07-03T05:50:49;13.80;;;11.93;;
22256;SDS011;11297;42.686;23.374;2022-07-03T05:53:16;13.20;;;11.43;;
22256;SDS011;11297;42.686;23.374;2022-07-03T05:55:41;12.77;;;11.40;;
22256;SDS011;11297;42.686;23.374;2022-07-03T05:58:07;14.63;;;13.23;;
22256;SDS011;11297;42.686;23.374;2022-07-03T06:00:32;14.30;;;12.23;;
22256;SDS011;11297;42.686;23.374;2022-07-03T06:02:58;13.10;;;11.70;;
22256;SDS011;11297;42.686;23.374;2022-07-03T06:05:23;12.50;;;10.93;;
22256;SDS011;11297;42.686;23.374;2022-07-03T06:07:49;12.37;;;11.17;;
22256;SDS011;11297;42.686;23.374;2022-07-03T06:10:15;11.67;;;10.30;;
22256;SDS011;11297;42.686;23.374;2022-07-03T06:12:40;11.13;;;9.97;;
22256;SDS011;11297;42.686;23.374;2022-07-03T06:15:06;11.60;;;10.23;;
22256;SDS011;11297;42.686;23.374;2022-07-03T06:17:34;11.17;;;9.83;;
22256;SDS011;11297;42.686;23.374;2022-07-03T06:20:00;11.83;;;10.63;;
22256;SDS011;11297;42.686;23.374;2022-07-03T06:22:25;11.93;;;10.30;;
22256;SDS011;11297;42.686;23.374;2022-07-03T06:24:51;10.37;;;7.27;;
22256;SDS011;11297;42.686;23.374;2022-07-03T06:27:16;14.83;;;7.80;;
22256;SDS011;11297;42.686;23.374;2022-07-03T06:29:41;13.00;;;11.60;;
22256;SDS011;11297;42.686;23.374;2022-07-03T06:32:07;11.07;;;9.97;;
22256;SDS011;11297;42.686;23.374;2022-07-03T06:34:32;8.87;;;8.07;;
22256;SDS011;11297;42.686;23.374;2022-07-03T06:36:58;11.10;;;8.80;;
22256;SDS011;11297;42.686;23.374;2022-07-03T06:39:23;10.17;;;8.70;;
22256;SDS011;11297;42.686;23.374;2022-07-03T06:41:49;12.60;;;10.30;;
22256;SDS011;11297;42.686;23.374;2022-07-03T06:44:14;13.07;;;10.53;;
22256;SDS011;11297;42.686;23.374;2022-07-03T06:46:40;9.30;;;8.37;;
22256;SDS011;11297;42.686;23.374;2022-07-03T06:49:05;10.40;;;8.83;;
22256;SDS011;11297;42.686;23.374;2022-07-03T06:51:30;15.17;;;10.20;;
22256;SDS011;11297;42.686;23.374;2022-07-03T06:53:58;12.07;;;9.83;;
22256;SDS011;11297;42.686;23.374;2022-07-03T06:56:24;12.87;;;8.07;;
22256;SDS011;11297;42.686;23.374;2022-07-03T06:58:49;9.97;;;8.97;;
22256;SDS011;11297;42.686;23.374;2022-07-03T07:01:15;8.40;;;7.67;;
22256;SDS011;11297;42.686;23.374;2022-07-03T07:03:40;9.40;;;8.43;;
22256;SDS011;11297;42.686;23.374;2022-07-03T07:06:06;9.03;;;8.03;;
22256;SDS011;11297;42.686;23.374;2022-07-03T07:08:31;9.43;;;8.53;;
22256;SDS011;11297;42.686;23.374;2022-07-03T07:10:57;8.33;;;7.53;;
22256;SDS011;11297;42.686;23.374;2022-07-03T07:13:22;8.53;;;7.73;;
22256;SDS011;11297;42.686;23.374;2022-07-03T07:15:47;8.70;;;7.90;;
22256;SDS011;11297;42.686;23.374;2022-07-03T07:18:13;9.03;;;8.20;;
22256;SDS011;11297;42.686;23.374;2022-07-03T07:20:38;9.77;;;8.97;;
22256;SDS011;11297;42.686;23.374;2022-07-03T07:23:04;10.23;;;9.30;;
22256;SDS011;11297;42.686;23.374;2022-07-03T07:25:29;12.03;;;8.67;;
22256;SDS011;11297;42.686;23.374;2022-07-03T07:27:54;13.07;;;9.27;;
22256;SDS011;11297;42.686;23.374;2022-07-03T07:30:20;12.03;;;8.80;;
22256;SDS011;11297;42.686;23.374;2022-07-03T07:32:45;11.63;;;10.53;;
22256;SDS011;11297;42.686;23.374;2022-07-03T07:35:11;12.87;;;8.17;;
22256;SDS011;11297;42.686;23.374;2022-07-03T07:37:36;8.00;;;7.20;;
22256;SDS011;11297;42.686;23.374;2022-07-03T07:40:02;8.17;;;7.37;;
22256;SDS011;11297;42.686;23.374;2022-07-03T07:42:28;7.60;;;7.00;;
22256;SDS011;11297;42.686;23.374;2022-07-03T07:44:53;8.30;;;7.60;;
22256;SDS011;11297;42.686;23.374;2022-07-03T07:47:19;7.17;;;6.50;;
22256;SDS011;11297;42.686;23.374;2022-07-03T07:49:44;7.53;;;6.80;;
22256;SDS011;11297;42.686;23.374;2022-07-03T07:52:10;8.97;;;6.97;;
22256;SDS011;11297;42.686;23.374;2022-07-03T07:54:35;9.37;;;7.13;;
22256;SDS011;11297;42.686;23.374;2022-07-03T07:57:01;7.57;;;6.73;;
22256;SDS011;11297;42.686;23.374;2022-07-03T07:59:26;7.23;;;6.63;;
22256;SDS011;11297;42.686;23.374;2022-07-03T08:01:51;8.27;;;6.90;;
22256;SDS011;11297;42.686;23.374;2022-07-03T08:04:36;7.30;;;6.60;;
22256;SDS011;11297;42.686;23.374;2022-07-03T08:07:20;11.30;;;6.70;;
22256;SDS011;11297;42.686;23.374;2022-07-03T08:09:45;7.87;;;7.10;;
22256;SDS011;11297;42.686;23.374;2022-07-03T08:12:11;7.60;;;6.90;;
22256;SDS011;11297;42.686;23.374;2022-07-03T08:14:36;7.33;;;6.63;;
22256;SDS011;11297;42.686;23.374;2022-07-03T08:17:03;7.53;;;6.87;;
22256;SDS011;11297;42.686;23.374;2022-07-03T08:19:29;6.70;;;6.10;;
22256;SDS011;11297;42.686;23.374;2022-07-03T08:21:54;7.73;;;6.30;;
22256;SDS011;11297;42.686;23.374;2022-07-03T08:24:20;6.73;;;6.10;;
22256;SDS011;11297;42.686;23.374;2022-07-03T08:26:45;8.13;;;6.23;;
22256;SDS011;11297;42.686;23.374;2022-07-03T08:29:10;6.97;;;6.37;;
22256;SDS011;11297;42.686;23.374;2022-07-03T08:31:36;7.33;;;6.20;;
22256;SDS011;11297;42.686;23.374;2022-07-03T08:34:02;7.23;;;5.97;;
22256;SDS011;11297;42.686;23.374;2022-07-03T08:36:27;7.87;;;6.90;;
22256;SDS011;11297;42.686;23.374;2022-07-03T08:38:53;7.27;;;6.60;;
22256;SDS011;11297;42.686;23.374;2022-07-03T08:41:18;7.70;;;6.27;;
22256;SDS011;11297;42.686;23.374;2022-07-03T08:43:45;6.57;;;5.87;;
22256;SDS011;11297;42.686;23.374;2022-07-03T08:46:12;6.90;;;6.30;;
22256;SDS011;11297;42.686;23.374;2022-07-03T08:48:39;9.13;;;6.57;;
22256;SDS011;11297;42.686;23.374;2022-07-03T08:51:06;6.75;;;6.15;;
22256;SDS011;11297;42.686;23.374;2022-07-03T08:53:31;7.00;;;6.32;;
22256;SDS011;11297;42.686;23.374;2022-07-03T08:55:57;6.35;;;5.80;;
22256;SDS011;11297;42.686;23.374;2022-07-03T08:58:23;7.07;;;6.28;;
22256;SDS011;11297;42.686;23.374;2022-07-03T09:00:49;7.43;;;6.55;;
22256;SDS011;11297;42.686;23.374;2022-07-03T09:03:15;6.60;;;5.90;;
22256;SDS011;11297;42.686;23.374;2022-07-03T09:05:41;7.03;;;5.65;;
22256;SDS011;11297;42.686;23.374;2022-07-03T09:08:07;6.40;;;5.80;;
22256;SDS011;11297;42.686;23.374;2022-07-03T09:10:33;6.20;;;5.60;;
22256;SDS011;11297;42.686;23.374;2022-07-03T09:12:59;8.95;;;5.65;;
22256;SDS011;11297;42.686;23.374;2022-07-03T09:15:25;20.90;;;6.70;;
22256;SDS011;11297;42.686;23.374;2022-07-03T09:18:01;7.83;;;5.77;;
22256;SDS011;11297;42.686;23.374;2022-07-03T09:20:31;6.82;;;5.82;;
22256;SDS011;11297;42.686;23.374;2022-07-03T09:23:09;7.10;;;4.72;;
22256;SDS011;11297;42.686;23.374;2022-07-03T09:25:54;8.43;;;5.75;;
22256;SDS011;11297;42.686;23.374;2022-07-03T09:28:24;6.30;;;5.70;;
22256;SDS011;11297;42.686;23.374;2022-07-03T09:31:10;7.25;;;5.35;;
22256;SDS011;11297;42.686;23.374;2022-07-03T09:36:44;5.80;;;5.30;;
22256;SDS011;11297;42.686;23.374;2022-07-03T09:39:19;8.05;;;4.70;;
22256;SDS011;11297;42.686;23.374;2022-07-03T09:44:35;5.85;;;5.35;;
22256;SDS011;11297;42.686;23.374;2022-07-03T09:47:13;6.32;;;5.50;;
22256;SDS011;11297;42.686;23.374;2022-07-03T09:49:47;5.97;;;5.15;;
22256;SDS011;11297;42.686;23.374;2022-07-03T09:54:52;5.32;;;4.88;;
22256;SDS011;11297;42.686;23.374;2022-07-03T09:57:17;5.88;;;5.30;;
22256;SDS011;11297;42.686;23.374;2022-07-03T09:59:44;5.60;;;4.50;;
22256;SDS011;11297;42.686;23.374;2022-07-03T10:02:09;6.07;;;5.57;;
22256;SDS011;11297;42.686;23.374;2022-07-03T10:04:35;6.10;;;5.38;;
22256;SDS011;11297;42.686;23.374;2022-07-03T10:07:00;5.35;;;4.95;;
22256;SDS011;11297;42.686;23.374;2022-07-03T10:09:30;7.20;;;5.20;;
22256;SDS011;11297;42.686;23.374;2022-07-03T10:11:57;5.45;;;4.53;;
22256;SDS011;11297;42.686;23.374;2022-07-03T10:14:25;6.00;;;5.40;;
22256;SDS011;11297;42.686;23.374;2022-07-03T10:17:00;6.78;;;4.53;;
22256;SDS011;11297;42.686;23.374;2022-07-03T10:19:28;5.03;;;4.55;;
22256;SDS011;11297;42.686;23.374;2022-07-03T10:21:55;5.33;;;4.77;;
22256;SDS011;11297;42.686;23.374;2022-07-03T10:24:29;6.43;;;4.43;;
22256;SDS011;11297;42.686;23.374;2022-07-03T10:26:55;6.00;;;4.77;;
22256;SDS011;11297;42.686;23.374;2022-07-03T10:29:23;8.33;;;5.10;;
22256;SDS011;11297;42.686;23.374;2022-07-03T10:31:50;5.57;;;4.95;;
22256;SDS011;11297;42.686;23.374;2022-07-03T10:34:17;4.90;;;4.43;;
22256;SDS011;11297;42.686;23.374;2022-07-03T10:36:59;8.80;;;4.68;;
22256;SDS011;11297;42.686;23.374;2022-07-03T10:41:58;7.35;;;5.03;;
22256;SDS011;11297;42.686;23.374;2022-07-03T10:47:38;33.77;;;14.33;;
22256;SDS011;11297;42.686;23.374;2022-07-03T10:50:08;34.43;;;14.77;;
22256;SDS011;11297;42.686;23.374;2022-07-03T10:52:35;42.63;;;19.50;;
22256;SDS011;11297;42.686;23.374;2022-07-03T10:55:01;94.40;;;41.03;;
22256;SDS011;11297;42.686;23.374;2022-07-03T10:57:28;76.72;;;30.83;;
22256;SDS011;11297;42.686;23.374;2022-07-03T11:07:22;39.03;;;19.50;;
22256;SDS011;11297;42.686;23.374;2022-07-03T11:20:34;12.30;;;7.43;;
22256;SDS011;11297;42.686;23.374;2022-07-03T11:25:57;19.07;;;9.70;;
22256;SDS011;11297;42.686;23.374;2022-07-03T11:36:28;13.07;;;7.60;;
22256;SDS011;11297;42.686;23.374;2022-07-03T11:41:24;8.63;;;5.30;;
22256;SDS011;11297;42.686;23.374;2022-07-03T11:43:51;8.30;;;6.80;;
22256;SDS011;11297;42.686;23.374;2022-07-03T11:49:03;8.27;;;5.10;;
22256;SDS011;11297;42.686;23.374;2022-07-03T11:51:32;5.17;;;4.67;;
22256;SDS011;11297;42.686;23.374;2022-07-03T11:53:58;6.77;;;4.97;;
22256;SDS011;11297;42.686;23.374;2022-07-03T11:56:25;5.37;;;4.40;;
22256;SDS011;11297;42.686;23.374;2022-07-03T11:58:54;5.93;;;5.33;;
22256;SDS011;11297;42.686;23.374;2022-07-03T12:03:46;8.43;;;4.77;;
22256;SDS011;11297;42.686;23.374;2022-07-03T12:06:12;8.00;;;5.20;;
22256;SDS011;11297;42.686;23.374;2022-07-03T12:08:37;9.47;;;5.07;;
22256;SDS011;11297;42.686;23.374;2022-07-03T12:11:07;7.40;;;5.23;;
22256;SDS011;11297;42.686;23.374;2022-07-03T12:13:34;5.07;;;4.67;;
22256;SDS011;11297;42.686;23.374;2022-07-03T12:16:04;7.27;;;4.87;;
22256;SDS011;11297;42.686;23.374;2022-07-03T12:21:20;7.60;;;4.57;;
22256;SDS011;11297;42.686;23.374;2022-07-03T12:23:48;6.53;;;4.57;;
22256;SDS011;11297;42.686;23.374;2022-07-03T12:28:54;5.43;;;4.57;;
22256;SDS011;11297;42.686;23.374;2022-07-03T12:31:19;5.57;;;4.53;;
22256;SDS011;11297;42.686;23.374;2022-07-03T12:33:45;5.40;;;4.43;;
22256;SDS011;11297;42.686;23.374;2022-07-03T12:36:12;4.63;;;4.33;;
22256;SDS011;11297;42.686;23.374;2022-07-03T12:38:38;4.93;;;4.43;;
22256;SDS011;11297;42.686;23.374;2022-07-03T12:41:06;5.10;;;4.20;;
22256;SDS011;11297;42.686;23.374;2022-07-03T12:43:36;5.17;;;4.33;;
22256;SDS011;11297;42.686;23.374;2022-07-03T12:46:03;5.00;;;4.60;;
22256;SDS011;11297;42.686;23.374;2022-07-03T12:48:47;6.70;;;4.80;;
22256;SDS011;11297;42.686;23.374;2022-07-03T12:51:14;7.50;;;4.67;;
22256;SDS011;11297;42.686;23.374;2022-07-03T12:53:40;6.43;;;4.17;;
22256;SDS011;11297;42.686;23.374;2022-07-03T12:56:07;5.10;;;4.70;;
22256;SDS011;11297;42.686;23.374;2022-07-03T12:58:34;5.00;;;4.60;;
22256;SDS011;11297;42.686;23.374;2022-07-03T13:03:52;6.80;;;4.47;;
22256;SDS011;11297;42.686;23.374;2022-07-03T13:06:19;4.37;;;3.97;;
22256;SDS011;11297;42.686;23.374;2022-07-03T13:08:57;5.90;;;5.03;;
22256;SDS011;11297;42.686;23.374;2022-07-03T13:11:40;7.03;;;4.90;;
22256;SDS011;11297;42.686;23.374;2022-07-03T13:14:11;6.63;;;5.93;;
22256;SDS011;11297;42.686;23.374;2022-07-03T13:19:05;8.43;;;5.37;;
22256;SDS011;11297;42.686;23.374;2022-07-03T13:21:32;5.87;;;5.37;;
22256;SDS011;11297;42.686;23.374;2022-07-03T13:23:58;7.00;;;5.10;;
22256;SDS011;11297;42.686;23.374;2022-07-03T13:26:24;5.87;;;5.10;;
22256;SDS011;11297;42.686;23.374;2022-07-03T13:28:49;6.47;;;4.90;;
22256;SDS011;11297;42.686;23.374;2022-07-03T13:31:14;5.70;;;5.20;;
22256;SDS011;11297;42.686;23.374;2022-07-03T13:33:40;5.23;;;4.83;;
22256;SDS011;11297;42.686;23.374;2022-07-03T13:36:05;7.03;;;5.37;;
22256;SDS011;11297;42.686;23.374;2022-07-03T13:38:31;6.17;;;5.57;;
22256;SDS011;11297;42.686;23.374;2022-07-03T13:40:56;6.43;;;5.73;;
22256;SDS011;11297;42.686;23.374;2022-07-03T13:43:22;6.47;;;5.10;;
22256;SDS011;11297;42.686;23.374;2022-07-03T13:45:47;5.33;;;4.83;;
22256;SDS011;11297;42.686;23.374;2022-07-03T13:48:13;5.17;;;4.67;;
22256;SDS011;11297;42.686;23.374;2022-07-03T13:50:39;5.60;;;4.80;;
22256;SDS011;11297;42.686;23.374;2022-07-03T13:53:07;5.50;;;5.10;;
22256;SDS011;11297;42.686;23.374;2022-07-03T13:55:32;8.00;;;5.30;;
22256;SDS011;11297;42.686;23.374;2022-07-03T13:57:58;5.80;;;4.87;;
22256;SDS011;11297;42.686;23.374;2022-07-03T14:00:23;6.33;;;5.23;;
22256;SDS011;11297;42.686;23.374;2022-07-03T14:02:49;5.97;;;5.40;;
22256;SDS011;11297;42.686;23.374;2022-07-03T14:05:14;5.37;;;4.87;;
22256;SDS011;11297;42.686;23.374;2022-07-03T14:07:40;6.87;;;5.43;;
22256;SDS011;11297;42.686;23.374;2022-07-03T14:10:05;8.83;;;5.17;;
22256;SDS011;11297;42.686;23.374;2022-07-03T14:12:31;5.77;;;5.17;;
22256;SDS011;11297;42.686;23.374;2022-07-03T14:14:57;6.20;;;5.07;;
22256;SDS011;11297;42.686;23.374;2022-07-03T14:17:22;5.70;;;5.20;;
22256;SDS011;11297;42.686;23.374;2022-07-03T14:19:48;5.83;;;5.23;;
22256;SDS011;11297;42.686;23.374;2022-07-03T14:22:14;6.10;;;5.23;;
22256;SDS011;11297;42.686;23.374;2022-07-03T14:24:39;5.73;;;4.90;;
22256;SDS011;11297;42.686;23.374;2022-07-03T14:27:04;6.77;;;5.10;;
22256;SDS011;11297;42.686;23.374;2022-07-03T14:29:48;6.50;;;5.13;;
22256;SDS011;11297;42.686;23.374;2022-07-03T14:32:32;6.37;;;4.87;;
22256;SDS011;11297;42.686;23.374;2022-07-03T14:34:59;7.60;;;6.80;;
22256;SDS011;11297;42.686;23.374;2022-07-03T14:37:26;5.50;;;5.00;;
22256;SDS011;11297;42.686;23.374;2022-07-03T14:39:52;6.23;;;5.63;;
22256;SDS011;11297;42.686;23.374;2022-07-03T14:42:18;5.50;;;5.03;;
22256;SDS011;11297;42.686;23.374;2022-07-03T14:44:44;5.23;;;4.83;;
22256;SDS011;11297;42.686;23.374;2022-07-03T14:47:10;6.07;;;5.53;;
22256;SDS011;11297;42.686;23.374;2022-07-03T14:49:35;6.13;;;5.50;;
22256;SDS011;11297;42.686;23.374;2022-07-03T14:52:01;5.90;;;5.10;;
22256;SDS011;11297;42.686;23.374;2022-07-03T14:54:28;6.07;;;5.30;;
22256;SDS011;11297;42.686;23.374;2022-07-03T14:56:56;5.67;;;5.10;;
22256;SDS011;11297;42.686;23.374;2022-07-03T15:02:42;8.13;;;5.20;;
22256;SDS011;11297;42.686;23.374;2022-07-03T15:05:18;5.93;;;5.27;;
22256;SDS011;11297;42.686;23.374;2022-07-03T15:07:58;5.40;;;5.00;;
22256;SDS011;11297;42.686;23.374;2022-07-03T15:10:33;5.90;;;5.20;;
22256;SDS011;11297;42.686;23.374;2022-07-03T15:13:00;7.33;;;5.50;;
22256;SDS011;11297;42.686;23.374;2022-07-03T15:15:27;6.10;;;5.60;;
22256;SDS011;11297;42.686;23.374;2022-07-03T15:17:54;6.50;;;5.10;;
22256;SDS011;11297;42.686;23.374;2022-07-03T15:20:23;6.00;;;5.20;;
22256;SDS011;11297;42.686;23.374;2022-07-03T15:22:53;6.60;;;5.00;;
22256;SDS011;11297;42.686;23.374;2022-07-03T15:25:19;5.67;;;5.07;;
22256;SDS011;11297;42.686;23.374;2022-07-03T15:27:51;7.67;;;4.80;;
22256;SDS011;11297;42.686;23.374;2022-07-03T15:30:18;6.03;;;5.37;;
22256;SDS011;11297;42.686;23.374;2022-07-03T15:32:45;5.50;;;5.10;;
22256;SDS011;11297;42.686;23.374;2022-07-03T15:35:12;6.70;;;5.40;;
22256;SDS011;11297;42.686;23.374;2022-07-03T15:40:33;9.13;;;8.23;;
22256;SDS011;11297;42.686;23.374;2022-07-03T15:51:24;6.80;;;5.70;;
22256;SDS011;11297;42.686;23.374;2022-07-03T15:53:56;6.37;;;5.83;;
22256;SDS011;11297;42.686;23.374;2022-07-03T15:56:30;6.00;;;5.33;;
22256;SDS011;11297;42.686;23.374;2022-07-03T15:59:02;6.33;;;5.73;;
22256;SDS011;11297;42.686;23.374;2022-07-03T16:01:34;5.93;;;5.43;;
22256;SDS011;11297;42.686;23.374;2022-07-03T16:04:41;6.20;;;5.40;;
22256;SDS011;11297;42.686;23.374;2022-07-03T16:07:12;9.23;;;5.50;;
22256;SDS011;11297;42.686;23.374;2022-07-03T16:09:40;5.97;;;5.30;;
22256;SDS011;11297;42.686;23.374;2022-07-03T16:12:06;9.10;;;5.60;;
22256;SDS011;11297;42.686;23.374;2022-07-03T16:14:37;6.27;;;5.53;;
22256;SDS011;11297;42.686;23.374;2022-07-03T16:17:04;6.47;;;5.43;;